Aérodrome :
LOGIN :

S'inscrire | Disclaimer

   EN    FR    IT 

 










Légende :    VFR   VFR Marginal   IFR   IFR Intensif   IFR Très Intensif
Visi : 
Plafond : 
>= 8 km
>= 3000ft
5 à 8 km
1000 à 3000 ft
1500m à 5 km
500 à 1000 ft
800 à 1500m
200 à 500 ft
< 800m
< 200 ft
Symboles :   Orages  Brouillard  Fortes neiges  Fortes précipitations  Vent > 20 kt
SIGMETs :   Divers  Orages  Givrage  Turbulence  Onde Orograph.  Cendres Volcan.






- Altitude de l'aérodrome : 1465 ft


LSMP - Payerne

DERNIER METAR :
  • 181250Z AUTO VRB04KT 9999NDV FEW037 OVC065 07/M01 Q1017 RMK

METARs EXPIRÉS :
  • 181220Z 03005KT 340V080 9999 FEW036 BKN060 06/M01 Q1017 RMK BLU
  • 181150Z AUTO 36005KT 320V040 9999NDV SCT038 BKN051 BKN061 06/M01 Q1017 RMK
  • 181120Z 32006KT 250V010 9999 FEW039 BKN062 07/M01 Q1017 RMK BLU
  • 181050Z AUTO 33006KT 290V030 9999NDV SCT040 BKN057 05/M02 Q1017 RMK
  • 181020Z AUTO 35006KT 300V050 9999NDV BKN049 BKN059 06/M01 Q1017 RMK
  • 180950Z AUTO 36005KT 320V030 9999NDV BKN051 06/M00 Q1017 RMK
  • 180920Z AUTO 01004KT 350V050 9999NDV FEW036 BKN042 OVC050 05/M01 Q1016 RMK
  • 180850Z AUTO 35005KT 310V010 9999NDV FEW036 SCT042 BKN049 05/M02 Q1016 RMK
  • 180820Z AUTO 34005KT 290V010 9999NDV BKN044 05/M02 Q1015 RMK
  • 180750Z 32004KT 290V360 9999 FEW035 BKN040 05/M01 Q1015 RMK BLU

Prévision TAF périmée.



MET'MAP, la Météo Aéronautique d'un coup d'oeil ! - Copyright ORBIFLY Décembre 2007 - Disclaimer

ORBIFLY MET'MAP TEAM :

Programmation & Développement : Alexandra Zaïnal
Sur une idée originale de : Baudouin d'Aumeries
Soutien technique & logistique : Manuel Goepfert
Assistance : Marc-Olivier Méhu




SOURCES & CREDITS :

   NOAA